createdAt,value
2023-04-12T00:01:52.247Z,97726.06
2023-04-12T00:04:18.771Z,97724.47
2023-04-12T00:06:48.343Z,97716.25
2023-04-12T00:09:15.894Z,97702.69
2023-04-12T00:11:42.225Z,97689.63
2023-04-12T00:14:08.566Z,97691.78
2023-04-12T00:16:36.239Z,97679.81
2023-04-12T00:19:03.573Z,97680.88
2023-04-12T00:21:30.152Z,97672.38
2023-04-12T00:23:57.413Z,97658.53
2023-04-12T00:26:25.759Z,97659.91
2023-04-12T00:28:52.086Z,97659.09
2023-04-12T00:31:18.491Z,97655.13
2023-04-12T00:33:44.960Z,97654.09
2023-04-12T00:36:11.327Z,97638.66
2023-04-12T00:38:38.114Z,97636.56
2023-04-12T00:41:04.436Z,97632.56
2023-04-12T00:43:30.780Z,97631.00
2023-04-12T00:45:57.722Z,97622.50
2023-04-12T00:48:24.359Z,97623.84
2023-04-12T00:50:51.161Z,97615.03
2023-04-12T00:53:17.691Z,97610.28
2023-04-12T00:55:44.321Z,97615.88
2023-04-12T00:58:10.718Z,97615.38
2023-04-12T01:00:37.080Z,97602.31
2023-04-12T01:03:05.327Z,97602.31
2023-04-12T01:05:31.734Z,97601.31
2023-04-12T01:08:16.884Z,97598.91
2023-04-12T01:10:52.437Z,97602.66
2023-04-12T01:13:18.695Z,97595.75
2023-04-12T01:15:48.686Z,97586.19
2023-04-12T01:18:17.307Z,97587.50
2023-04-12T01:20:44.690Z,97585.16
2023-04-12T01:23:14.749Z,97575.53
2023-04-12T01:25:51.069Z,97577.41
2023-04-12T01:28:20.956Z,97571.59
2023-04-12T01:30:47.566Z,97568.38
2023-04-12T01:33:13.952Z,97574.00
2023-04-12T01:35:40.701Z,97560.69
2023-04-12T01:38:07.047Z,97550.06
2023-04-12T01:40:33.404Z,97546.06
2023-04-12T01:43:06.003Z,97544.44
2023-04-12T01:45:32.436Z,97549.75
2023-04-12T01:47:58.938Z,97537.81
2023-04-12T01:50:40.307Z,97534.91
2023-04-12T01:53:08.974Z,97521.34
2023-04-12T01:55:35.409Z,97508.31
2023-04-12T01:58:01.737Z,97499.25
2023-04-12T02:00:28.056Z,97499.56
2023-04-12T02:02:54.550Z,97498.72
2023-04-12T02:05:21.060Z,97497.28
2023-04-12T02:07:47.367Z,97489.75
2023-04-12T02:10:14.516Z,97485.72
2023-04-12T02:12:41.290Z,97483.28
2023-04-12T02:15:08.130Z,97486.69
2023-04-12T02:17:37.319Z,97471.22
2023-04-12T02:20:09.630Z,97469.84
2023-04-12T02:22:36.008Z,97468.78
2023-04-12T02:25:02.722Z,97466.38
2023-04-12T02:27:29.052Z,97462.41
2023-04-12T02:29:55.875Z,97466.97
2023-04-12T02:32:22.315Z,97451.75
2023-04-12T02:34:51.360Z,97450.63
2023-04-12T02:37:18.362Z,97443.56
2023-04-12T02:39:44.741Z,97443.19
2023-04-12T02:42:11.098Z,97442.31
2023-04-12T02:44:37.406Z,97435.38
2023-04-12T02:47:03.739Z,97429.00
2023-04-12T02:49:30.226Z,97428.13
2023-04-12T02:51:56.997Z,97419.91
2023-04-12T02:54:23.325Z,97422.56
2023-04-12T02:56:49.667Z,97418.81
2023-04-12T02:59:16.152Z,97410.03
2023-04-12T03:01:46.620Z,97401.25
2023-04-12T03:04:13.313Z,97397.78
2023-04-12T03:06:52.518Z,97399.13
2023-04-12T03:09:18.872Z,97391.16
2023-04-12T03:11:45.785Z,97387.13
2023-04-12T03:14:12.103Z,97385.25
2023-04-12T03:16:38.421Z,97374.22
2023-04-12T03:19:06.118Z,97369.47
2023-04-12T03:21:33.160Z,97377.75
2023-04-12T03:23:59.576Z,97368.47
2023-04-12T03:26:26.567Z,97349.59
2023-04-12T03:28:59.801Z,97346.69
2023-04-12T03:31:27.323Z,97350.22
2023-04-12T03:33:53.743Z,97337.97
2023-04-12T03:36:21.640Z,97328.41
2023-04-12T03:38:47.992Z,97335.41
2023-04-12T03:41:15.248Z,97325.03
2023-04-12T03:43:42.559Z,97329.19
2023-04-12T03:46:08.917Z,97324.81
2023-04-12T03:48:36.130Z,97316.94
2023-04-12T03:51:07.698Z,97311.81
2023-04-12T03:53:34.410Z,97315.56
2023-04-12T03:56:00.727Z,97309.44
2023-04-12T03:58:27.058Z,97292.66
2023-04-12T04:00:53.383Z,97294.53
2023-04-12T04:03:19.865Z,97284.16
2023-04-12T04:05:46.240Z,97295.63
2023-04-12T04:08:12.564Z,97284.16
2023-04-12T04:10:38.884Z,97274.84
2023-04-12T04:13:05.310Z,97267.16
2023-04-12T04:15:32.661Z,97258.38
2023-04-12T04:17:59.009Z,97255.19
2023-04-12T04:20:27.347Z,97264.28
2023-04-12T04:22:54.240Z,97251.75
2023-04-12T04:25:21.806Z,97246.50
2023-04-12T04:27:49.412Z,97249.06
2023-04-12T04:30:16.456Z,97251.16
2023-04-12T04:32:43.677Z,97245.84
2023-04-12T04:35:10.073Z,97244.44
2023-04-12T04:37:37.170Z,97231.41
2023-04-12T04:40:08.479Z,97233.28
2023-04-12T04:42:34.909Z,97234.09
2023-04-12T04:45:05.373Z,97221.16
2023-04-12T04:47:31.800Z,97214.81
2023-04-12T04:49:59.510Z,97225.75
2023-04-12T04:52:26.004Z,97217.56
2023-04-12T04:54:57.380Z,97197.50
2023-04-12T04:57:23.945Z,97195.28
2023-04-12T04:59:50.506Z,97187.09
2023-04-12T05:02:16.935Z,97183.56
2023-04-12T05:04:43.335Z,97193.91
2023-04-12T05:07:10.816Z,97166.59
2023-04-12T05:09:37.373Z,97161.56
2023-04-12T05:12:03.725Z,97167.41
2023-04-12T05:14:43.981Z,97154.47
2023-04-12T05:17:13.331Z,97153.88
2023-04-12T05:19:41.302Z,97149.72
2023-04-12T05:22:07.640Z,97142.81
2023-04-12T05:24:33.995Z,97135.28
2023-04-12T05:27:00.351Z,97132.16
2023-04-12T05:29:26.672Z,97134.81
2023-04-12T05:31:52.985Z,97124.63
2023-04-12T05:34:19.319Z,97119.88
2023-04-12T05:36:45.996Z,97122.28
2023-04-12T05:39:12.316Z,97124.06
2023-04-12T05:41:38.657Z,97103.97
2023-04-12T05:44:05.060Z,97106.06
2023-04-12T05:46:31.513Z,97105.97
2023-04-12T05:48:58.038Z,97108.72
2023-04-12T05:51:37.713Z,97096.38
2023-04-12T05:54:07.269Z,97096.53
2023-04-12T05:56:33.801Z,97091.22
2023-04-12T05:59:03.188Z,97078.97
2023-04-12T06:01:32.501Z,97078.97
2023-04-12T06:03:59.232Z,97078.47
2023-04-12T06:06:30.034Z,97078.28
2023-04-12T06:09:00.056Z,97065.25
2023-04-12T06:11:29.258Z,97069.03
2023-04-12T06:13:55.578Z,97063.06
2023-04-12T06:16:21.987Z,97050.50
2023-04-12T06:18:48.363Z,97058.50
2023-04-12T06:21:14.708Z,97052.09
2023-04-12T06:23:41.071Z,97055.56
2023-04-12T06:26:07.396Z,97048.63
2023-04-12T06:28:33.729Z,97043.59
2023-04-12T06:31:00.976Z,97037.47
2023-04-12T06:33:27.350Z,97027.41
2023-04-12T06:35:53.692Z,97020.50
2023-04-12T06:38:20.123Z,97029.59
2023-04-12T06:40:46.450Z,97019.50
2023-04-12T06:43:12.797Z,97012.59
2023-04-12T06:45:39.165Z,97012.91
2023-04-12T06:48:05.633Z,97013.97
2023-04-12T06:50:32.052Z,97009.75
2023-04-12T06:52:58.395Z,97000.94
2023-04-12T06:55:27.069Z,97002.03
2023-04-12T06:57:53.701Z,96993.25
2023-04-12T07:00:20.033Z,96981.06
2023-04-12T07:02:46.713Z,96996.13
2023-04-12T07:05:13.612Z,96989.97
2023-04-12T07:07:39.960Z,96980.50
2023-04-12T07:10:06.664Z,96980.31
2023-04-12T07:12:33.292Z,96970.28
2023-04-12T07:14:59.768Z,96984.97
2023-04-12T07:17:29.229Z,96969.06
2023-04-12T07:19:55.680Z,96966.50
2023-04-12T07:22:22.010Z,96971.63
2023-04-12T07:24:48.680Z,96961.28
2023-04-12T07:27:15.806Z,96954.97
2023-04-12T07:29:42.472Z,96958.94
2023-04-12T07:32:09.229Z,96949.03
2023-04-12T07:34:36.826Z,96949.84
2023-04-12T07:37:04.187Z,96947.38
2023-04-12T07:39:31.707Z,96928.69
2023-04-12T07:41:58.221Z,96934.63
2023-04-12T07:44:24.783Z,96928.50
2023-04-12T07:46:51.166Z,96934.63
2023-04-12T07:49:17.487Z,96928.91
2023-04-12T07:51:44.261Z,96930.31
2023-04-12T07:54:10.606Z,96926.66
2023-04-12T07:56:37.014Z,96922.22
2023-04-12T07:59:03.333Z,96907.94
2023-04-12T08:01:30.328Z,96906.84
2023-04-12T08:03:56.996Z,96900.34
2023-04-12T08:06:23.630Z,96905.47
2023-04-12T08:08:49.959Z,96897.09
2023-04-12T08:11:16.393Z,96907.56
2023-04-12T08:13:42.787Z,96900.34
2023-04-12T08:16:09.169Z,96903.00
2023-04-12T08:18:35.756Z,96889.78
2023-04-12T08:21:02.589Z,96889.59
2023-04-12T08:23:28.904Z,96882.19
2023-04-12T08:26:02.630Z,96882.81
2023-04-12T08:28:29.686Z,96875.88
2023-04-12T08:30:56.138Z,96873.50
2023-04-12T08:33:22.541Z,96872.72
2023-04-12T08:35:49.597Z,96874.91
2023-04-12T08:38:16.461Z,96874.91
2023-04-12T08:40:43.075Z,96864.25
2023-04-12T08:43:11.672Z,96859.41
2023-04-12T08:45:38.120Z,96857.06
2023-04-12T08:48:04.622Z,96850.63
2023-04-12T08:50:31.410Z,96845.31
2023-04-12T08:53:00.765Z,96850.06
2023-04-12T08:55:27.208Z,96847.09
2023-04-12T08:57:54.030Z,96839.41
2023-04-12T09:00:21.025Z,96841.44
2023-04-12T09:02:48.990Z,96835.22
2023-04-12T09:05:15.930Z,96835.34
2023-04-12T09:07:42.441Z,96819.66
2023-04-12T09:10:08.982Z,96822.50
2023-04-12T09:12:37.762Z,96816.56
2023-04-12T09:15:12.888Z,96812.56
2023-04-12T09:17:40.520Z,96807.31
2023-04-12T09:20:27.395Z,96803.09
2023-04-12T09:22:55.656Z,96793.22
2023-04-12T09:25:41.171Z,96791.03
2023-04-12T09:28:23.901Z,96790.56
2023-04-12T09:30:54.771Z,96775.66
2023-04-12T09:33:22.247Z,96777.06
2023-04-12T09:35:48.724Z,96759.97
2023-04-12T09:38:15.345Z,96774.38
2023-04-12T09:40:43.519Z,96756.06
2023-04-12T09:43:10.678Z,96755.25
2023-04-12T09:45:39.040Z,96749.13
2023-04-12T09:48:06.361Z,96755.56
2023-04-12T09:50:35.775Z,96755.84
2023-04-12T09:53:02.661Z,96755.84
2023-04-12T09:55:29.684Z,96750.81
2023-04-12T09:57:56.172Z,96742.81
2023-04-12T10:00:23.009Z,96752.69
2023-04-12T10:02:51.820Z,96742.34
2023-04-12T10:05:19.671Z,96745.78
2023-04-12T10:07:46.468Z,96750.03
2023-04-12T10:10:17.455Z,96730.91
2023-04-12T10:12:45.502Z,96727.66
2023-04-12T10:15:17.281Z,96727.34
2023-04-12T10:17:45.367Z,96722.50
2023-04-12T10:20:12.304Z,96713.44
2023-04-12T10:22:39.450Z,96706.25
2023-04-12T10:25:05.882Z,96703.88
2023-04-12T10:27:32.474Z,96697.56
2023-04-12T10:30:18.422Z,96708.41
2023-04-12T10:32:44.780Z,96698.06
2023-04-12T10:35:11.851Z,96699.94
2023-04-12T10:37:56.901Z,96699.94
2023-04-12T10:40:23.242Z,96683.97
2023-04-12T10:42:49.684Z,96702.59
2023-04-12T10:45:25.206Z,96704.78
2023-04-12T10:47:51.519Z,96697.88
2023-04-12T10:50:24.993Z,96694.13
2023-04-12T10:53:09.858Z,96690.97
2023-04-12T10:55:38.291Z,96681.13
2023-04-12T10:58:04.659Z,96678.75
2023-04-12T11:00:49.657Z,96676.88
2023-04-12T11:03:17.885Z,96677.97
2023-04-12T11:05:56.924Z,96676.09
2023-04-12T11:08:23.348Z,96669.69
2023-04-12T11:10:49.980Z,96678.47
2023-04-12T11:13:16.685Z,96685.97
2023-04-12T11:15:43.847Z,96674.53
2023-04-12T11:18:10.522Z,96673.72
2023-04-12T11:20:36.947Z,96683.59
2023-04-12T11:23:03.481Z,96671.38
2023-04-12T11:25:29.833Z,96670.59
2023-04-12T11:27:56.317Z,96669.22
2023-04-12T11:30:23.616Z,96663.88
2023-04-12T11:32:50.189Z,96665.03
2023-04-12T11:35:16.991Z,96660.53
2023-04-12T11:37:43.705Z,96666.63
2023-04-12T11:40:10.428Z,96662.00
2023-04-12T11:42:36.767Z,96657.75
2023-04-12T11:45:10.127Z,96653.41
2023-04-12T11:47:44.325Z,96649.44
2023-04-12T11:50:10.988Z,96646.75
2023-04-12T11:52:37.346Z,96640.50
2023-04-12T11:55:06.499Z,96640.38
2023-04-12T11:57:33.085Z,96645.28
2023-04-12T12:00:00.174Z,96625.25
2023-04-12T12:02:30.397Z,96622.72
2023-04-12T12:04:58.556Z,96616.34
2023-04-12T12:07:25.819Z,96604.88
2023-04-12T12:09:52.360Z,96598.16
2023-04-12T12:12:18.814Z,96605.53
2023-04-12T12:14:45.546Z,96607.44
2023-04-12T12:17:12.356Z,96601.00
2023-04-12T12:19:39.761Z,96611.16
2023-04-12T12:22:06.046Z,96612.25
2023-04-12T12:24:32.429Z,96610.38
2023-04-12T12:27:01.274Z,96603.66
2023-04-12T12:29:27.605Z,96603.66
2023-04-12T12:31:54.019Z,96604.63
2023-04-12T12:34:20.423Z,96601.66
2023-04-12T12:36:47.065Z,96606.19
2023-04-12T12:39:15.354Z,96606.97
2023-04-12T12:41:41.729Z,96601.66
2023-04-12T12:44:08.625Z,96606.97
2023-04-12T12:49:04.276Z,96600.44
2023-04-12T12:51:31.432Z,96598.59
2023-04-12T12:53:58.014Z,96600.66
2023-04-12T12:56:24.536Z,96597.06
2023-04-12T12:58:50.881Z,96599.81
2023-04-12T13:01:17.221Z,96607.81
2023-04-12T13:03:43.800Z,96601.22
2023-04-12T13:06:10.271Z,96594.63
2023-04-12T13:08:37.148Z,96593.50
2023-04-12T13:11:03.906Z,96580.66
2023-04-12T13:13:30.366Z,96588.19
2023-04-12T13:15:56.703Z,96582.06
2023-04-12T13:18:23.048Z,96583.66
2023-04-12T13:20:49.357Z,96587.72
2023-04-12T13:23:16.033Z,96584.28
2023-04-12T13:25:42.363Z,96580.81
2023-04-12T13:28:08.718Z,96580.19
2023-04-12T13:30:35.170Z,96583.50
2023-04-12T13:33:01.550Z,96579.88
2023-04-12T13:35:27.894Z,96583.91
2023-04-12T13:37:54.439Z,96564.31
2023-04-12T13:40:20.839Z,96565.69
2023-04-12T13:42:47.197Z,96559.56
2023-04-12T13:45:13.661Z,96554.84
2023-04-12T13:47:40.051Z,96551.41
2023-04-12T13:50:06.796Z,96552.19
2023-04-12T13:52:33.145Z,96547.34
2023-04-12T13:54:59.608Z,96543.75
2023-04-12T13:57:26.245Z,96538.31
2023-04-12T13:59:52.550Z,96540.81
2023-04-12T14:02:18.953Z,96529.53
2023-04-12T14:04:54.360Z,96530.94
2023-04-12T14:07:21.184Z,96527.66
2023-04-12T14:09:48.613Z,96523.56
2023-04-12T14:12:15.467Z,96516.34
2023-04-12T14:14:42.234Z,96514.34
2023-04-12T14:17:08.619Z,96515.56
2023-04-12T14:19:34.959Z,96507.41
2023-04-12T14:22:02.395Z,96506.00
2023-04-12T14:24:28.736Z,96504.44
2023-04-12T14:26:57.100Z,96499.13
2023-04-12T14:29:23.465Z,96495.03
2023-04-12T14:31:49.853Z,96501.13
2023-04-12T14:34:16.312Z,96510.38
2023-04-12T14:36:42.696Z,96511.00
2023-04-12T14:39:10.836Z,96508.66
2023-04-12T14:41:38.567Z,96515.25
2023-04-12T14:44:05.009Z,96512.75
2023-04-12T14:46:31.810Z,96508.81
2023-04-12T14:49:00.940Z,96516.31
2023-04-12T14:51:28.194Z,96509.25
2023-04-12T14:53:54.531Z,96512.19
2023-04-12T14:56:23.859Z,96520.53
2023-04-12T14:58:51.242Z,96523.66
2023-04-12T15:01:18.409Z,96520.53
2023-04-12T15:03:45.804Z,96514.25
2023-04-12T15:06:12.979Z,96522.31
2023-04-12T15:08:42.817Z,96525.16
2023-04-12T15:11:09.950Z,96522.94
2023-04-12T15:13:36.795Z,96529.06
2023-04-12T15:16:03.909Z,96540.03
2023-04-12T15:18:30.378Z,96535.50
2023-04-12T15:21:00.078Z,96534.09
2023-04-12T15:23:26.801Z,96540.69
2023-04-12T15:26:01.103Z,96533.00
2023-04-12T15:28:27.889Z,96539.41
2023-04-12T15:30:55.508Z,96535.66
2023-04-12T15:33:23.105Z,96539.41
2023-04-12T15:35:50.537Z,96525.28
2023-04-12T15:38:21.941Z,96522.63
2023-04-12T15:40:56.791Z,96527.16
2023-04-12T15:43:24.832Z,96528.28
2023-04-12T15:45:53.223Z,96529.38
2023-04-12T15:48:20.554Z,96524.81
2023-04-12T15:50:47.467Z,96534.38
2023-04-12T15:53:14.296Z,96529.06
2023-04-12T15:55:43.839Z,96533.59
2023-04-12T15:58:10.567Z,96527.81
2023-04-12T16:00:38.258Z,96532.03
2023-04-12T16:03:05.018Z,96532.84
2023-04-12T16:05:32.990Z,96538.19
2023-04-12T16:07:59.742Z,96540.06
2023-04-12T16:10:26.828Z,96540.22
2023-04-12T16:12:53.906Z,96541.00
2023-04-12T16:15:20.546Z,96549.31
2023-04-12T16:17:47.350Z,96552.78
2023-04-12T16:20:17.173Z,96548.09
2023-04-12T16:22:44.757Z,96566.28
2023-04-12T16:25:12.138Z,96570.53
2023-04-12T16:27:38.534Z,96586.72
2023-04-12T16:30:05.649Z,96580.75
2023-04-12T16:32:32.175Z,96586.91
2023-04-12T16:34:59.008Z,96591.44
2023-04-12T16:37:26.439Z,96592.41
2023-04-12T16:39:53.036Z,96571.34
2023-04-12T16:42:21.937Z,96562.28
2023-04-12T16:44:48.263Z,96556.00
2023-04-12T16:47:15.352Z,96555.19
2023-04-12T16:49:41.797Z,96553.31
2023-04-12T16:52:09.721Z,96549.06
2023-04-12T16:54:36.046Z,96545.16
2023-04-12T16:57:02.365Z,96539.94
2023-04-12T16:59:35.527Z,96543.06
2023-04-12T17:02:01.912Z,96543.72
2023-04-12T17:04:28.450Z,96548.41
2023-04-12T17:06:54.939Z,96541.03
2023-04-12T17:09:21.431Z,96528.31
2023-04-12T17:11:47.748Z,96519.84
2023-04-12T17:14:14.862Z,96526.28
2023-04-12T17:16:41.333Z,96546.38
2023-04-12T17:19:10.453Z,96543.88
2023-04-12T17:21:40.922Z,96567.38
2023-04-12T17:24:07.594Z,96587.50
2023-04-12T17:26:33.945Z,96588.59
2023-04-12T17:29:01.030Z,96595.31
2023-04-12T17:34:01.007Z,96616.19
2023-04-12T17:36:31.335Z,96639.94
2023-04-12T17:38:58.965Z,96644.19
2023-04-12T17:41:25.999Z,96662.28
2023-04-12T17:43:52.382Z,96661.97
2023-04-12T17:46:18.748Z,96675.19
2023-04-12T17:48:45.257Z,96661.84
2023-04-12T17:51:11.621Z,96667.47
2023-04-12T17:53:38.010Z,96674.69
2023-04-12T17:56:04.513Z,96678.16
2023-04-12T17:58:30.914Z,96679.72
2023-04-12T18:00:57.250Z,96694.50
2023-04-12T18:03:23.763Z,96694.94
2023-04-12T18:05:50.591Z,96701.22
2023-04-12T18:08:16.967Z,96707.66
2023-04-12T18:10:43.291Z,96708.59
2023-04-12T18:13:09.766Z,96716.63
2023-04-12T18:15:37.495Z,96728.38
2023-04-12T18:18:04.427Z,96722.38
2023-04-12T18:20:31.271Z,96721.44
2023-04-12T18:22:57.609Z,96718.28
2023-04-12T18:25:23.959Z,96718.13
2023-04-12T18:27:50.303Z,96727.53
2023-04-12T18:30:17.619Z,96719.34
2023-04-12T18:32:44.052Z,96723.91
2023-04-12T18:35:10.789Z,96714.63
2023-04-12T18:37:37.186Z,96705.69
2023-04-12T18:40:07.073Z,96704.09
2023-04-12T18:42:33.419Z,96707.06
2023-04-12T18:44:59.764Z,96710.38
2023-04-12T18:47:26.240Z,96712.41
2023-04-12T18:49:53.960Z,96713.53
2023-04-12T18:52:20.274Z,96711.22
2023-04-12T18:54:46.638Z,96715.22
2023-04-12T18:57:13.660Z,96712.56
2023-04-12T18:59:40.041Z,96714.13
2023-04-12T19:02:06.806Z,96728.13
2023-04-12T19:04:33.165Z,96721.34
2023-04-12T19:06:59.580Z,96720.56
2023-04-12T19:09:26.019Z,96737.38
2023-04-12T19:11:55.407Z,96743.03
2023-04-12T19:14:21.801Z,96749.47
2023-04-12T19:16:48.116Z,96748.53
2023-04-12T19:19:14.540Z,96751.19
2023-04-12T19:21:41.009Z,96755.28
2023-04-12T19:24:07.640Z,96755.91
2023-04-12T19:26:36.588Z,96754.78
2023-04-12T19:29:03.040Z,96765.47
2023-04-12T19:31:29.370Z,96773.03
2023-04-12T19:33:56.553Z,96774.25
2023-04-12T19:36:24.396Z,96776.13
2023-04-12T19:38:50.754Z,96766.34
2023-04-12T19:41:17.156Z,96773.09
2023-04-12T19:43:43.493Z,96765.88
2023-04-12T19:46:09.949Z,96765.09
2023-04-12T19:48:36.689Z,96760.03
2023-04-12T19:51:04.273Z,96766.41
2023-04-12T19:53:30.742Z,96757.50
2023-04-12T19:55:57.347Z,96760.00
2023-04-12T19:58:24.367Z,96757.34
2023-04-12T20:00:51.734Z,96762.69
2023-04-12T20:03:18.200Z,96761.28
2023-04-12T20:05:45.990Z,96762.19
2023-04-12T20:08:12.306Z,96766.72
2023-04-12T20:10:38.838Z,96779.28
2023-04-12T20:13:09.620Z,96786.44
2023-04-12T20:15:36.092Z,96784.66
2023-04-12T20:18:02.844Z,96787.66
2023-04-12T20:20:29.192Z,96783.56
2023-04-12T20:22:58.750Z,96787.06
2023-04-12T20:25:25.807Z,96791.75
2023-04-12T20:27:52.400Z,96794.97
2023-04-12T20:30:18.996Z,96787.94
2023-04-12T20:32:45.349Z,96778.03
2023-04-12T20:35:14.064Z,96773.03
2023-04-12T20:37:40.495Z,96763.28
2023-04-12T20:40:07.283Z,96771.59
2023-04-12T20:42:33.610Z,96764.69
2023-04-12T20:44:59.937Z,96765.63
2023-04-12T20:47:26.480Z,96773.44
2023-04-12T20:49:52.878Z,96768.72
2023-04-12T20:52:19.542Z,96767.91
2023-04-12T20:54:48.138Z,96771.97
2023-04-12T20:57:19.806Z,96773.25
2023-04-12T20:59:46.320Z,96773.22
2023-04-12T21:02:13.159Z,96771.91
2023-04-12T21:04:41.096Z,96768.78
2023-04-12T21:07:07.519Z,96769.28
2023-04-12T21:09:34.014Z,96774.13
2023-04-12T21:12:02.727Z,96767.53
2023-04-12T21:14:29.389Z,96769.72
2023-04-12T21:16:55.745Z,96770.81
2023-04-12T21:19:22.839Z,96765.00
2023-04-12T21:21:51.123Z,96765.28
2023-04-12T21:24:18.420Z,96765.91
2023-04-12T21:26:44.973Z,96764.31
2023-04-12T21:29:11.658Z,96772.63
2023-04-12T21:31:41.526Z,96766.84
2023-04-12T21:34:09.160Z,96770.66
2023-04-12T21:36:35.490Z,96771.28
2023-04-12T21:39:01.931Z,96774.25
2023-04-12T21:41:29.588Z,96773.78
2023-04-12T21:43:55.933Z,96774.50
2023-04-12T21:46:27.006Z,96783.22
2023-04-12T21:48:53.392Z,96781.56
2023-04-12T21:51:19.700Z,96783.28
2023-04-12T21:53:46.269Z,96780.72
2023-04-12T21:56:12.599Z,96788.22
2023-04-12T21:58:38.958Z,96784.00
2023-04-12T22:01:05.418Z,96775.50
2023-04-12T22:03:32.114Z,96780.66
2023-04-12T22:06:04.292Z,96783.59
2023-04-12T22:08:32.855Z,96782.53
2023-04-12T22:11:00.209Z,96772.16
2023-04-12T22:13:26.747Z,96780.47
2023-04-12T22:15:53.073Z,96775.72
2023-04-12T22:18:19.480Z,96775.25
2023-04-12T22:20:45.985Z,96779.28
2023-04-12T22:23:13.719Z,96777.72
2023-04-12T22:25:40.057Z,96784.16
2023-04-12T22:28:06.373Z,96779.09
2023-04-12T22:30:32.846Z,96782.38
2023-04-12T22:32:59.901Z,96788.28
2023-04-12T22:35:27.019Z,96787.03
2023-04-12T22:37:53.406Z,96784.38
2023-04-12T22:40:19.769Z,96788.59
2023-04-12T22:42:47.197Z,96788.91
2023-04-12T22:45:16.818Z,96780.69
2023-04-12T22:47:43.821Z,96782.25
2023-04-12T22:50:10.940Z,96788.97
2023-04-12T22:52:40.405Z,96782.84
2023-04-12T22:55:07.676Z,96780.50
2023-04-12T22:57:36.197Z,96789.28
2023-04-12T23:00:06.337Z,96788.47
2023-04-12T23:02:33.621Z,96784.84
2023-04-12T23:05:00.389Z,96785.63
2023-04-12T23:07:29.751Z,96788.59
2023-04-12T23:09:56.318Z,96787.03
2023-04-12T23:12:22.629Z,96781.97
2023-04-12T23:14:48.947Z,96787.31
2023-04-12T23:17:16.770Z,96780.41
2023-04-12T23:19:44.578Z,96776.47
2023-04-12T23:22:11.430Z,96782.09
2023-04-12T23:24:37.752Z,96775.50
2023-04-12T23:27:04.062Z,96772.31
2023-04-12T23:29:30.383Z,96776.09
2023-04-12T23:31:56.775Z,96775.28
2023-04-12T23:34:23.168Z,96761.50
2023-04-12T23:36:50.465Z,96762.56
2023-04-12T23:39:18.107Z,96766.31
2023-04-12T23:41:45.057Z,96761.31
2023-04-12T23:44:11.390Z,96763.97
2023-04-12T23:46:38.749Z,96754.69
2023-04-12T23:49:05.179Z,96750.47
2023-04-12T23:51:31.509Z,96752.34
2023-04-12T23:53:58.138Z,96748.09
2023-04-12T23:56:24.657Z,96743.06
2023-04-12T23:58:51.373Z,96743.38
